Aviation Digital Data Service (ADDS)

Output produced by METARs form (1153 UTC 18 June 2019)
found at http://www.aviationweather.gov/metar/data/
 
Forecast for: UUDL (YAROSLAV , RU)
Text: TAF UUDL 181100Z 1812/1912 25003MPS 9999 SCT040
Forecast period: 1200 UTC 18 June 2019 to 1200 UTC 19 June 2019
Forecast type: FROM: standard forecast or significant change
Winds: from the WSW (250 degrees) at 7 MPH (6 knots; 3.1 m/s)
Visibility: 6 or more miles 10+ km)
Ceiling: at least 12,000 feet AGL
Clouds: scattered clouds at 4000 feet AGL
Weather: no significant weather forecast for this period
Text: TEMPO 1812/1818 30007G12MPS 3100 -TSRA BKN011CB
Forecast period: 1200 to 1800 UTC 18 June 2019
Forecast type: TEMPORARY: The following changes expected for less than half the time period
Winds: from the WNW (300 degrees) at 16 MPH (14 knots; 7.2 m/s)
gusting to 26 MPH (23 knots; 11.8 m/s)
Visibility: 1.93 miles (3.11 km)
Ceiling: 1100 feet AGL
Clouds: broken clouds at 1100 feet AGL
Weather: -TSRA  (light rain associated with thunderstorm(s))
Text: TEMPO 1906/1912 31005MPS
Forecast period: 0600 to 1200 UTC 19 June 2019
Forecast type: TEMPORARY: The following changes expected for less than half the time period
Winds: from the NW (310 degrees) at 12 MPH (10 knots; 5.1 m/s)
Visibility: missing
Ceiling: unknown
Clouds: missing
Weather: no significant weather forecast for this period